KAPG/APG METAR and TAF weather

Enter ICAO airport designator
Station Type Date Time Source
KAPG METAR 2019/08/21 22:45 UTC NOAA

KAPG 212245Z 20009KT 7SM SCT040 BKN120 29/23 A2985 RMK LTG DSNT SW SLP111


Station Type Date Time Source
KAPG Decoded METAR 2019/08/21 22:45 UTC NOAA

Station name not available
Aug 21, 2019 - 06:45 PM EDT / 2019.08.21 2245 UTC
Wind: from the SSW (200 degrees) at 10 MPH (9 KT):0
Visibility: 7 mile(s):0
Sky conditions: mostly cloudy
Weather: Lightning observed
Temperature: 84 F (29 C)
Dew Point: 73 F (23 C)
Relative Humidity: 70%
Pressure (altimeter): 29.85 in. Hg (1010 hPa)
ob: KAPG 212245Z 20009KT 7SM SCT040 BKN120 29/23 A2985 RMK LTG DSNT SW SLP111
cycle: 23

Station Type Date Time Source
KAPG TAF UTC NOAA

Error!

Example: see airport list